Date,TemperatureHighF,TemperatureAvgF,TemperatureLowF,DewpointHighF,DewpointAvgF,DewpointLowF,HumidityHigh,HumidityAvg,HumidityLow,PressureMaxIn,PressureMinIn,WindSpeedMaxMPH,WindSpeedAvgMPH,GustSpeedMaxMPH,PrecipitationSumIn
2014-1-1,24.0,17.6,12.0,11.0,8.0,5.0,87,66,49,30.40,30.18,5,1,14,0.00
2014-1-2,17.0,8.2,-1.0,13.0,4.6,-4.0,89,85,80,30.40,29.91,2,0,6,0.00
2014-1-3,10.0,3.5,-3.0,6.0,-2.1,-11.0,88,77,60,30.40,29.79,0,0,0,0.00
2014-1-4,27.0,7.9,-10.0,10.0,-3.7,-99.9,85,63,34,30.49,30.25,0,0,0,0.00
2014-1-5,39.0,26.0,11.0,32.0,18.0,7.0,96,73,43,30.32,29.98,0,0,1,0.00
2014-1-6,55.0,38.9,27.0,55.0,37.2,18.0,100,93,66,29.98,29.28,4,1,14,0.80
2014-1-7,27.0,11.9,4.0,19.0,-2.2,-10.0,70,53,38,30.19,29.48,6,2,22,0.04
2014-1-8,22.0,10.9,4.0,6.0,-0.5,-9.0,78,60,45,30.45,30.19,3,1,9,0.00
2014-1-9,26.0,13.4,6.0,10.0,6.3,3.0,89,74,46,30.66,30.42,3,0,10,0.00
2014-1-10,33.0,21.8,4.0,30.0,19.8,2.0,97,91,84,30.61,30.29,0,0,1,0.00
2014-1-11,56.0,42.0,32.0,56.0,40.6,-99.9,100,98,97,30.28,29.27,2,0,8,0.46
2014-1-12,52.0,42.3,34.0,52.0,32.7,25.0,100,70,52,29.96,29.27,6,2,18,0.16
2014-1-13,51.0,38.4,27.0,39.0,29.7,24.0,92,73,46,30.13,29.91,2,0,7,0.00
2014-1-14,47.0,44.0,40.0,45.0,42.1,39.0,99,93,84,29.90,29.64,2,0,6,0.63
2014-1-15,46.0,35.7,29.0,40.0,33.6,29.0,100,93,70,30.02,29.75,2,0,8,0.30
2014-1-16,38.0,32.9,29.0,37.0,32.5,29.0,99,98,94,29.95,29.87,0,0,2,0.01
2014-1-17,44.0,34.4,27.0,34.0,29.8,25.0,100,85,48,29.98,29.91,2,0,8,0.01
2014-1-18,34.0,30.5,27.0,32.0,28.6,-99.9,98,95,91,29.94,29.65,1,0,2,0.00
2014-1-19,31.0,29.1,26.0,31.0,27.0,22.0,98,92,82,29.74,29.53,0,0,0,0.00
2014-1-20,40.0,31.3,19.0,31.0,25.6,8.0,93,80,62,29.88,29.50,6,1,15,0.08
2014-1-21,18.0,10.8,7.0,8.0,1.5,-3.0,86,66,49,30.09,29.88,4,1,9,0.02
2014-1-22,17.0,8.4,3.0,4.0,-2.9,-6.0,81,60,42,29.92,29.67,5,3,12,0.00
2014-1-23,21.0,9.2,0.0,0.0,-4.1,-8.0,70,55,38,30.15,29.89,5,2,12,0.00
2014-1-24,18.0,8.7,2.0,1.0,-3.6,-7.0,77,58,33,30.26,30.05,5,2,13,0.00
2014-1-25,35.0,22.5,11.0,27.0,13.1,-99.9,92,71,58,30.05,29.33,4,1,10,0.00
2014-1-26,23.0,17.1,11.0,18.0,2.8,-7.0,83,55,36,29.89,29.34,7,2,20,0.00
2014-1-27,42.0,23.2,17.0,35.0,13.1,3.0,90,67,38,29.98,29.55,5,1,18,0.10
2014-1-28,19.0,13.9,7.0,10.0,-2.0,-8.0,77,49,32,30.31,29.98,4,2,14,0.02
2014-1-29,25.0,17.0,12.0,5.0,-1.1,-6.0,72,46,26,30.24,29.97,5,1,14,0.00
2014-1-30,31.0,17.1,5.0,10.0,4.9,-2.0,77,59,40,30.45,30.20,2,0,7,0.00
2014-1-31,39.0,28.7,17.0,23.0,17.4,10.0,90,65,39,30.20,30.03,5,1,12,0.00
2014-2-1,45.0,32.5,23.0,30.0,22.5,-99.9,89,70,43,30.35,30.05,1,0,4,0.00
2014-2-2,47.0,37.6,31.0,41.0,34.7,30.0,98,90,68,30.07,29.87,1,0,3,0.07
2014-2-3,34.0,29.2,18.0,32.0,25.0,17.0,98,85,64,30.30,30.06,3,0,9,0.03
2014-2-4,35.0,23.9,12.0,24.0,18.0,10.0,95,80,50,30.48,30.30,4,0,8,0.01
2014-2-5,27.0,24.8,22.0,25.0,22.3,19.0,94,90,72,30.36,29.70,0,0,3,0.01
2014-2-6,28.0,17.5,7.0,20.0,11.8,4.0,94,80,49,30.28,29.96,0,0,0,0.00
2014-2-7,30.0,17.0,1.0,14.0,7.1,-2.0,93,68,43,30.26,30.15,0,0,1,0.00
2014-2-8,30.0,17.8,2.0,13.0,5.2,-1.0,88,60,33,30.30,30.15,1,0,5,0.00
2014-2-9,31.0,23.6,18.0,23.0,15.1,9.0,94,71,51,30.20,29.96,2,0,5,0.01
2014-2-10,27.0,20.0,6.0,23.0,12.4,2.0,94,74,47,30.22,29.92,4,1,10,0.01
2014-2-11,25.0,10.0,-5.0,8.0,1.0,-8.0,91,69,43,30.45,30.22,3,1,9,0.00
2014-2-12,30.0,11.6,3.0,5.0,-0.8,-5.0,81,60,25,30.58,30.44,3,1,9,0.00
2014-2-13,32.0,23.0,10.0,32.0,20.6,5.0,98,90,78,30.45,29.10,1,0,3,0.00
2014-2-14,32.0,30.1,27.0,32.0,27.1,23.0,98,88,81,29.72,28.86,0,0,0,0.00
2014-2-15,34.0,27.5,20.0,29.0,23.9,-99.9,96,90,73,29.87,29.53,0,0,0,0.00
2014-2-16,31.0,24.2,18.0,27.0,13.8,2.0,96,66,44,29.98,29.51,6,0,10,0.00
2014-2-17,27.0,17.0,5.0,2.0,-1.2,-3.0,72,45,28,30.38,29.98,5,2,14,0.00
2014-2-18,26.0,15.1,0.0,25.0,11.7,-4.0,95,86,66,30.38,29.94,2,0,5,0.00
2014-2-19,33.0,25.0,13.0,30.0,23.2,11.0,97,93,77,30.11,29.76,0,0,0,0.00
2014-2-20,49.0,35.5,25.0,34.0,29.1,24.0,98,80,42,30.24,29.83,3,0,9,0.33
2014-2-21,38.0,35.0,30.0,37.0,34.3,30.0,99,98,96,30.18,29.69,2,0,5,1.18
2014-2-22,53.0,38.9,30.0,35.0,27.3,-99.9,100,70,34,29.96,29.84,4,1,13,0.07
2014-2-23,48.0,36.6,25.0,31.0,27.3,23.0,95,71,45,30.00,29.78,2,0,7,0.00
2014-2-24,39.0,30.1,21.0,30.0,15.6,9.0,84,55,40,29.94,29.75,6,2,16,0.00
2014-2-25,27.0,20.0,13.0,10.0,7.1,5.0,74,58,40,29.98,29.88,6,2,15,0.00
2014-2-26,29.0,15.7,5.0,11.0,3.6,-5.0,90,62,32,29.95,29.77,6,1,16,0.00
2014-2-27,27.0,14.3,3.0,13.0,2.8,-3.0,80,62,31,29.89,29.60,5,1,19,0.00
2014-2-28,25.0,13.0,3.0,1.0,-5.8,-11.0,75,45,22,30.45,29.91,5,2,13,0.00
2014-3-1,34.0,17.2,-2.0,20.0,4.9,-99.9,86,64,36,30.46,30.11,2,0,7,0.00
2014-3-2,38.0,31.6,25.0,26.0,20.8,13.0,80,64,57,30.09,29.98,3,1,9,0.00
2014-3-3,25.0,17.8,7.0,13.0,3.2,-5.0,63,53,38,30.31,30.02,4,2,13,0.00
2014-3-4,30.0,14.6,-3.0,11.0,-0.3,-7.0,83,55,28,30.41,30.26,2,0,6,0.00
2014-3-5,24.0,20.3,11.0,18.0,14.9,7.0,91,80,61,30.53,30.27,1,0,4,0.00
2014-3-6,34.0,13.4,0.0,6.0,-0.7,-7.0,81,57,18,30.66,30.53,2,0,5,0.01
2014-3-7,43.0,18.8,-3.0,24.0,10.4,-6.0,89,73,37,30.53,29.99,1,0,5,0.01
2014-3-8,54.0,33.5,16.0,28.0,21.7,-99.9,95,68,36,29.98,29.72,4,1,14,0.00
2014-3-9,40.0,30.2,23.0,19.0,13.9,8.0,71,52,28,29.96,29.88,5,1,11,0.00
2014-3-10,45.0,33.2,25.0,31.0,23.2,13.0,89,68,47,29.89,29.65,3,0,10,0.00
2014-3-11,57.0,41.5,29.0,36.0,30.7,27.0,97,70,34,29.73,29.51,5,1,14,0.01
2014-3-12,43.0,37.4,34.0,37.0,34.4,30.0,98,89,77,29.74,29.08,2,0,5,0.54
2014-3-13,35.0,19.7,13.0,34.0,12.9,0.0,97,76,48,29.94,29.05,7,4,17,0.53
2014-3-14,38.0,23.5,7.0,23.0,8.9,-2.0,77,54,37,30.17,29.91,5,1,10,0.00
2014-3-15,54.0,41.6,35.0,37.0,30.6,23.0,88,66,41,29.91,29.67,7,2,26,0.01
2014-3-16,38.0,28.1,20.0,24.0,7.9,-99.9,69,45,28,30.22,29.86,7,3,19,0.01
2014-3-17,32.0,20.1,13.0,8.0,-1.4,-99.9,62,41,25,30.22,30.07,3,2,9,0.00
2014-3-18,42.0,24.9,10.0,21.0,8.4,-1.0,85,53,23,30.37,30.23,2,0,7,0.00
2014-3-19,43.0,28.0,15.0,31.0,22.2,13.0,95,80,50,30.42,30.04,2,0,7,0.00
2014-3-20,48.0,38.7,33.0,41.0,31.0,-99.9,98,79,50,30.03,29.62,6,2,19,0.57
2014-3-21,41.0,35.8,28.0,27.0,22.5,-99.9,77,61,49,30.03,29.73,7,2,17,0.06
2014-3-22,53.0,34.7,20.0,36.0,25.0,18.0,93,69,43,30.07,29.67,6,1,23,0.00
2014-3-23,41.0,32.6,21.0,25.0,15.7,-99.9,84,53,30,30.10,29.93,5,2,15,0.00
2014-3-24,31.0,20.6,13.0,8.0,2.1,0.0,72,46,27,30.18,30.06,5,2,12,0.00
2014-3-25,37.0,23.8,9.0,21.0,11.4,6.0,91,62,32,30.16,29.98,3,1,11,0.00
2014-3-26,33.0,28.6,22.0,21.0,13.2,3.0,75,53,36,30.02,29.64,8,4,21,0.00
2014-3-27,43.0,29.2,18.0,19.0,6.0,0.0,58,38,21,30.33,30.03,6,2,25,0.00
2014-3-28,52.0,43.2,34.0,48.0,34.7,15.0,95,73,41,30.25,29.95,3,1,11,0.05
2014-3-29,51.0,44.0,37.0,48.0,39.5,36.0,97,85,63,30.27,30.02,2,1,11,0.47
2014-3-30,39.0,37.0,35.0,38.0,34.9,-99.9,98,96,94,30.04,29.68,3,1,11,2.57
2014-3-31,41.0,35.9,33.0,36.0,32.9,29.0,98,90,75,30.03,29.73,4,2,11,2.49
2014-4-13,56.0,45.2,41.0,45.0,37.6,-99.9,95,81,65,30.29,30.06,1,0,4,0.06
2014-4-14,78.0,58.5,37.0,59.0,48.5,36.0,99,73,46,30.04,29.85,5,2,14,0.06
2014-4-15,66.0,60.4,41.0,62.0,57.4,39.0,96,90,78,29.89,29.54,6,2,14,0.55
2014-4-16,41.0,34.2,27.0,38.0,23.7,16.0,97,68,40,30.61,29.74,6,3,16,0.37
2014-4-17,45.0,32.1,23.0,27.0,22.2,17.0,91,68,43,30.82,30.63,2,0,8,0.03
2014-4-18,48.0,35.7,23.0,33.0,29.3,22.0,96,79,54,30.68,30.27,1,0,4,0.00
2014-4-19,60.0,45.4,28.0,38.0,31.7,27.0,98,63,35,30.42,30.17,6,2,13,0.00
2014-4-20,60.0,41.7,26.0,29.0,24.2,-99.9,93,57,24,30.54,30.35,2,0,7,0.00
2014-4-21,73.0,51.5,31.0,37.0,28.6,18.0,90,51,13,30.35,29.84,3,0,9,0.00
2014-4-22,78.0,59.0,42.0,54.0,41.3,30.0,93,56,27,29.84,29.47,2,0,10,0.10
2014-4-23,55.0,50.3,45.0,53.0,45.8,34.0,99,85,64,29.63,29.44,6,2,18,0.32
2014-4-24,56.0,46.8,39.0,34.0,28.3,22.0,66,49,34,29.93,29.63,8,5,21,0.09
2014-4-25,67.0,49.9,31.0,37.0,29.5,22.0,90,51,19,30.02,29.83,3,1,8,0.00
2014-4-26,50.0,44.2,41.0,42.0,39.2,34.0,96,84,55,29.90,29.79,1,0,3,0.30
2014-4-27,51.0,42.8,39.0,44.0,38.2,-99.9,98,88,71,30.07,29.87,2,0,7,0.19
2014-4-28,60.0,48.5,37.0,44.0,39.6,35.0,94,73,51,30.24,30.02,3,1,8,0.01
2014-4-29,47.0,42.8,40.0,40.0,36.7,34.0,88,79,69,30.55,30.26,3,1,9,0.00
2014-4-30,46.0,41.6,39.0,41.0,39.1,37.0,97,91,79,30.56,30.22,1,0,6,0.43
2014-5-1,65.0,50.0,41.0,58.0,48.2,40.0,99,94,76,30.21,29.68,1,0,5,0.97
2014-5-2,67.0,56.2,44.0,53.0,44.4,40.0,100,68,40,29.82,29.68,5,1,15,0.20
2014-5-3,68.0,55.1,42.0,48.0,43.5,39.0,92,67,42,29.87,29.73,4,0,11,0.00
2014-5-4,59.0,52.1,47.0,48.0,39.9,-99.9,92,66,47,29.73,29.54,6,2,18,0.02
2014-5-5,64.0,54.2,47.0,46.0,42.4,39.0,83,66,46,29.88,29.62,6,2,15,0.02
2014-5-6,64.0,52.2,37.0,41.0,34.6,27.0,95,56,28,30.04,29.85,6,2,13,0.00
2014-5-7,49.0,47.5,46.0,30.0,30.0,30.0,54,50,47,30.06,30.05,1,1,3,0.00
2014-5-13,51.0,48.8,47.0,41.0,40.1,39.0,75,72,68,30.35,30.32,0,0,2,0.00
2014-5-14,75.0,53.5,45.0,53.0,44.5,37.0,88,73,42,30.35,30.26,1,0,8,0.00
2014-5-15,80.0,66.1,56.0,65.0,59.0,52.0,92,79,56,30.30,30.21,2,0,7,0.00
2014-5-16,72.0,65.2,62.0,66.0,62.6,61.0,99,91,75,30.22,29.99,2,0,8,0.31
2014-5-17,75.0,64.9,53.0,64.0,53.5,38.0,100,71,33,30.08,29.85,3,1,12,0.96
2014-5-18,71.0,57.5,42.0,48.0,39.0,-99.9,95,56,29,30.13,30.02,3,1,9,0.01
2014-5-19,67.0,54.0,47.0,48.0,35.5,-99.9,90,55,37,30.11,30.03,4,1,11,0.00
2014-5-20,74.0,58.3,44.0,52.0,44.4,-99.9,96,66,35,30.04,29.95,3,1,11,0.00
2014-5-21,77.0,60.1,43.0,57.0,50.7,42.0,99,74,40,30.02,29.93,2,0,8,0.00
2014-5-22,66.0,54.9,49.0,58.0,50.9,-99.9,98,90,64,29.98,29.88,2,0,4,0.25
2014-5-23,59.0,54.2,50.0,57.0,53.3,49.0,100,97,87,30.02,29.90,0,0,3,0.14
2014-5-24,67.0,55.6,50.0,57.0,52.9,49.0,100,92,62,30.07,29.98,3,0,8,0.45
2014-5-25,74.0,59.3,52.0,62.0,53.6,-99.9,99,85,58,30.11,30.01,1,0,5,0.19
2014-5-26,78.0,65.8,51.0,61.0,56.9,51.0,100,76,50,30.01,29.81,4,1,19,0.03
2014-5-27,69.0,56.5,46.0,63.0,53.7,45.0,99,90,79,30.00,29.83,1,0,5,0.25
2014-5-28,49.0,47.0,40.0,48.0,46.2,39.0,99,98,95,30.25,29.95,1,0,7,0.66
2014-5-29,71.0,52.9,40.0,51.0,43.5,39.0,100,75,36,30.28,30.16,1,0,6,0.01
2014-5-30,75.0,55.6,41.0,58.0,48.7,40.0,99,81,42,30.18,30.01,2,0,7,0.01
2014-5-31,70.0,55.7,41.0,56.0,48.6,38.0,98,79,53,30.33,30.08,2,0,8,0.01
2014-6-1,81.0,58.9,39.0,55.0,43.6,-99.9,100,66,30,30.37,30.24,1,0,5,0.00
2014-6-2,86.0,67.1,47.0,58.0,51.8,45.0,96,63,34,30.24,30.01,2,0,5,0.00
2014-6-3,85.0,66.9,52.0,64.0,56.3,51.0,99,72,41,30.04,29.92,1,0,8,0.00
2014-6-4,66.0,60.0,55.0,60.0,54.9,50.0,94,84,73,29.93,29.80,1,0,3,0.01
2014-6-5,63.0,57.7,52.0,62.0,56.7,51.0,99,97,93,29.82,29.68,1,0,2,0.31
2014-6-6,75.0,62.8,51.0,60.0,55.7,51.0,100,80,55,29.89,29.71,2,0,10,0.09
2014-6-7,84.0,68.3,53.0,62.0,56.9,52.0,98,71,41,29.96,29.88,2,0,6,0.00
2014-6-8,90.0,68.6,52.0,63.0,54.7,-99.9,100,69,33,29.97,29.87,2,0,6,0.00
2014-6-9,85.0,69.6,58.0,70.0,61.8,56.0,97,78,53,30.00,29.91,1,0,5,0.00
2014-6-10,78.0,67.1,58.0,69.0,62.4,55.0,97,85,71,30.14,29.96,2,0,5,0.01
2014-6-11,75.0,61.6,50.0,60.0,53.7,49.0,99,77,52,30.22,30.14,1,0,4,0.01
2014-6-12,71.0,62.2,57.0,62.0,56.7,51.0,94,83,67,30.19,30.10,1,0,6,0.00
2014-6-13,62.0,59.9,57.0,61.0,58.9,57.0,100,97,91,30.10,29.83,1,0,4,1.04
2014-6-14,73.0,63.5,57.0,67.0,60.0,53.0,100,89,70,29.93,29.83,1,0,7,0.05
2014-6-15,78.0,63.9,53.0,62.0,51.9,-99.9,97,72,49,30.08,29.93,3,1,10,0.01
2014-6-16,83.0,65.2,50.0,59.0,52.7,48.0,97,69,32,30.17,30.03,2,0,9,0.00
2014-6-17,90.0,73.4,58.0,70.0,63.7,56.0,97,74,50,30.07,29.87,1,0,5,0.01
2014-6-18,83.0,74.9,67.0,70.0,66.1,61.0,98,76,53,29.95,29.72,4,1,12,0.14
2014-6-19,82.0,71.6,60.0,64.0,56.4,42.0,96,63,34,30.00,29.93,2,1,8,0.01
2014-6-20,75.0,63.1,47.0,51.0,46.6,43.0,97,59,33,30.00,29.91,3,1,10,0.00
2014-6-21,75.0,59.3,43.0,55.0,48.1,42.0,98,70,42,29.99,29.90,2,0,6,0.00
2014-6-22,80.0,61.9,44.0,58.0,48.0,-99.9,99,68,39,30.06,29.96,1,0,6,0.00
2014-6-23,84.0,65.0,48.0,61.0,53.8,47.0,100,72,39,30.16,30.06,2,0,4,0.00
2014-6-24,86.0,69.8,58.0,65.0,57.8,49.0,87,67,50,30.18,30.01,1,0,5,0.00
2014-6-25,92.0,78.0,64.0,73.0,66.1,55.0,90,68,51,30.02,29.86,2,0,10,0.01
2014-6-26,79.0,70.3,58.0,73.0,67.8,56.0,100,92,74,30.03,29.81,1,0,2,0.47
2014-6-27,83.0,65.8,53.0,59.0,55.4,51.0,100,73,40,30.23,30.04,2,0,4,0.15
2014-6-28,89.0,68.3,49.0,66.0,54.7,48.0,100,68,29,30.30,30.23,1,0,3,0.00
2014-6-29,92.0,68.7,52.0,68.0,54.8,-99.9,100,70,38,30.28,30.10,1,0,4,0.00
2014-6-30,92.0,75.4,60.0,69.0,63.5,57.0,92,69,43,30.11,29.93,2,0,8,0.00
2014-7-1,93.0,79.1,66.0,74.0,69.3,62.0,90,74,51,29.95,29.79,1,0,9,0.00
2014-7-2,96.0,79.8,70.0,78.0,71.8,67.0,99,78,55,29.95,29.80,3,0,13,0.19
2014-7-3,90.0,74.2,67.0,78.0,71.8,67.0,100,93,65,30.00,29.92,1,0,3,0.71
2014-7-4,73.0,67.9,63.0,71.0,67.5,63.0,100,98,90,30.01,29.85,1,0,3,1.53
2014-7-5,79.0,67.7,56.0,62.0,54.1,46.0,100,67,39,30.01,29.81,5,1,13,1.26
2014-7-6,87.0,70.2,55.0,61.0,52.1,-99.9,88,58,39,30.01,29.87,3,1,10,0.01
2014-7-7,88.0,74.1,64.0,72.0,66.4,60.0,98,79,55,29.88,29.70,2,0,6,0.29
2014-7-8,90.0,78.4,68.0,76.0,70.7,68.0,100,79,56,29.80,29.68,1,0,5,0.37
2014-7-9,88.0,78.6,69.0,70.0,66.6,64.0,91,69,47,29.97,29.67,2,1,9,0.12
2014-7-10,82.0,70.0,60.0,65.0,61.4,58.0,100,78,49,30.17,29.94,1,0,5,0.15
2014-7-11,83.0,68.0,57.0,62.0,58.3,54.0,99,75,46,30.26,30.18,1,0,3,0.00
2014-7-12,89.0,69.2,53.0,67.0,58.9,52.0,100,74,39,30.24,30.13,1,0,3,0.00
2014-7-13,88.0,73.1,65.0,72.0,63.5,59.0,88,70,56,30.13,29.91,2,0,8,0.00
2014-7-14,91.0,78.0,70.0,73.0,71.0,68.0,98,81,53,29.92,29.86,1,0,5,0.01
2014-7-15,89.0,75.8,72.0,76.0,72.7,71.0,100,91,64,29.86,29.77,1,0,4,0.78
2014-7-16,76.0,72.3,67.0,73.0,71.0,67.0,100,96,88,29.86,29.77,0,0,3,0.68
2014-7-17,83.0,67.9,59.0,66.0,61.8,57.0,100,83,52,30.09,29.87,1,0,4,0.30
2014-7-18,83.0,69.2,54.0,62.0,58.1,54.0,100,72,46,30.24,30.10,2,0,7,0.00
2014-7-19,79.0,67.2,56.0,68.0,62.6,55.0,100,86,67,30.30,30.24,0,0,2,0.00
2014-7-20,82.0,65.9,57.0,63.0,59.8,57.0,100,83,47,30.24,30.18,0,0,3,0.00
2014-7-21,84.0,68.7,54.0,66.0,60.4,54.0,100,78,48,30.23,30.16,1,0,4,0.00
2014-7-22,92.0,72.5,57.0,72.0,65.0,57.0,100,80,50,30.18,30.01,1,0,4,0.00
2014-7-23,94.0,81.3,68.0,77.0,72.2,67.0,96,76,52,30.00,29.75,2,0,6,0.28
2014-7-24,79.0,70.9,61.0,70.0,66.5,57.0,100,87,65,29.93,29.77,1,0,3,0.30
2014-7-25,82.0,64.5,52.0,64.0,57.8,52.0,100,82,48,30.01,29.93,1,0,5,0.00
2014-7-26,84.0,71.2,56.0,68.0,60.4,56.0,100,72,45,30.00,29.87,2,0,7,0.00
2014-7-27,75.0,66.9,61.0,73.0,64.9,60.0,99,90,81,29.91,29.68,1,0,3,0.27
2014-7-28,84.0,70.6,64.0,77.0,68.7,63.0,100,94,68,29.70,29.45,2,0,6,0.49
2014-7-29,77.0,66.8,58.0,64.0,60.2,57.0,100,82,56,29.96,29.56,2,1,7,0.23
2014-7-30,80.0,66.1,58.0,65.0,60.8,57.0,99,85,55,30.06,29.96,2,0,4,0.01
2014-7-31,83.0,64.6,52.0,65.0,59.5,52.0,100,86,52,30.18,30.06,2,0,5,0.00
2014-8-1,87.0,68.4,57.0,72.0,65.2,57.0,100,91,58,30.24,30.18,1,0,4,0.52
2014-8-2,74.0,67.8,58.0,69.0,64.9,57.0,100,92,71,30.25,30.16,0,0,4,0.01
2014-8-3,76.0,63.7,54.0,66.0,60.7,54.0,100,91,72,30.17,30.07,0,0,2,0.01
2014-8-4,88.0,70.1,59.0,73.0,65.3,59.0,100,87,51,30.08,30.00,1,0,2,0.00
2014-8-5,91.0,74.7,60.0,71.0,66.5,60.0,100,79,44,30.05,29.91,1,0,7,0.20
2014-8-6,82.0,71.0,61.0,69.0,63.5,58.0,100,80,51,29.91,29.81,1,0,8,0.22
2014-8-7,80.0,64.0,53.0,63.0,56.9,52.0,99,80,54,29.96,29.87,2,0,8,0.01
2014-8-8,83.0,66.6,52.0,61.0,57.5,52.0,100,76,45,30.05,29.96,2,0,8,0.00
2014-8-9,85.0,68.6,55.0,65.0,59.9,54.0,100,78,44,30.11,30.04,1,0,3,0.00
2014-8-10,87.0,67.9,55.0,66.0,58.2,55.0,100,72,39,30.16,30.11,1,0,2,0.00
2014-8-11,88.0,71.4,56.0,69.0,62.5,55.0,100,77,49,30.17,30.10,1,0,3,0.00
2014-8-12,83.0,71.3,59.0,66.0,63.0,58.0,100,77,54,30.15,30.05,1,0,5,0.00
2014-8-13,68.0,65.5,62.0,66.0,64.6,62.0,100,97,85,30.05,29.64,2,0,5,2.51
2014-8-14,75.0,61.9,51.0,62.0,56.2,50.0,100,84,48,29.89,29.67,2,0,6,0.74
2014-8-15,68.0,60.3,50.0,58.0,54.6,49.0,99,83,60,29.94,29.86,2,0,6,0.02
2014-8-16,77.0,64.6,53.0,60.0,55.6,52.0,97,75,43,29.99,29.93,3,0,6,0.02
2014-8-17,77.0,64.5,56.0,65.0,57.9,55.0,100,79,63,29.93,29.80,2,0,8,0.00
2014-8-18,77.0,62.2,52.0,59.0,54.2,51.0,99,78,44,29.90,29.81,2,0,10,0.00
2014-8-19,80.0,60.1,46.0,60.0,53.1,45.0,100,81,46,29.98,29.90,0,0,2,0.00
2014-8-20,84.0,62.2,50.0,64.0,56.5,50.0,100,84,48,30.09,29.99,1,0,2,0.00
2014-8-21,71.0,60.3,51.0,64.0,57.8,51.0,100,92,70,30.13,30.08,0,0,2,0.11
2014-8-22,73.0,62.9,58.0,67.0,61.2,58.0,100,94,73,30.15,30.11,0,0,1,0.94
2014-8-23,75.0,63.1,55.0,65.0,58.7,54.0,100,87,62,30.16,30.13,0,0,1,0.02
2014-8-24,82.0,60.0,50.0,65.0,56.6,50.0,100,88,54,30.18,30.13,0,0,2,0.00
2014-8-25,89.0,69.2,57.0,68.0,62.6,57.0,100,83,42,30.19,30.12,1,0,2,0.00
2014-8-26,90.0,68.5,57.0,71.0,64.1,57.0,100,88,53,30.18,30.05,0,0,2,0.00
2014-8-27,90.0,75.7,63.0,74.0,68.8,62.0,99,81,54,30.05,29.85,2,0,6,0.00
2014-8-28,79.0,69.3,60.0,69.0,58.2,50.0,93,70,48,30.01,29.83,2,0,8,0.00
2014-8-29,78.0,61.0,51.0,62.0,54.7,49.0,98,81,51,30.29,30.02,1,0,3,0.00
2014-8-30,80.0,62.6,51.0,62.0,57.0,51.0,100,84,49,30.32,30.14,1,0,3,0.00
2014-8-31,85.0,72.9,64.0,74.0,68.1,61.0,99,84,68,30.14,29.96,2,0,9,0.13
2014-9-1,88.0,75.2,67.0,75.0,70.9,67.0,100,88,60,30.01,29.92,1,0,4,0.13
2014-9-2,90.0,73.6,66.0,77.0,71.6,66.0,100,94,61,29.95,29.74,2,0,9,0.30
2014-9-3,82.0,70.8,60.0,73.0,65.5,59.0,100,85,48,30.09,29.72,2,0,7,0.46
2014-9-4,86.0,67.8,53.0,66.0,60.7,53.0,100,82,43,30.22,30.10,1,0,6,0.16
2014-9-5,91.0,73.4,60.0,74.0,67.1,60.0,100,83,54,30.17,29.98,1,0,8,0.00
2014-9-6,89.0,74.4,63.0,77.0,70.6,62.0,100,90,60,29.98,29.77,4,0,11,0.28
2014-9-7,78.0,63.8,53.0,63.0,57.1,51.0,100,81,40,30.23,29.94,1,0,6,0.23
2014-9-8,75.0,58.2,49.0,59.0,52.8,49.0,100,85,51,30.41,30.23,0,0,3,0.00
2014-9-9,71.0,58.8,49.0,59.0,53.6,49.0,100,85,55,30.40,30.24,1,0,5,0.00
2014-9-10,70.0,61.9,56.0,62.0,58.7,55.0,100,90,67,30.24,30.06,1,0,3,0.00
2014-9-11,73.0,66.3,57.0,69.0,63.8,57.0,100,92,81,30.06,29.79,2,0,6,0.00
2014-9-12,71.0,59.3,49.0,58.0,50.8,45.0,87,74,52,30.27,29.92,2,0,8,0.00
2014-9-13,61.0,53.1,42.0,56.0,50.4,41.0,99,91,77,30.32,30.14,1,0,4,0.21
2014-9-14,65.0,52.5,45.0,56.0,47.7,43.0,100,84,55,30.26,30.13,2,0,8,0.17
2014-9-15,66.0,51.0,39.0,51.0,45.3,38.0,100,84,49,30.27,30.11,1,0,5,0.01
2014-9-16,63.0,52.6,47.0,58.0,51.5,46.0,100,96,85,30.13,29.97,1,0,2,0.08
2014-9-17,70.0,53.7,41.0,57.0,47.9,41.0,100,84,47,30.04,29.96,1,0,6,0.01
2014-9-18,73.0,54.3,40.0,56.0,47.7,40.0,100,81,49,30.17,29.95,1,0,5,0.00
2014-9-19,61.0,44.6,35.0,42.0,37.1,33.0,99,78,40,30.44,30.18,1,0,4,0.00
2014-9-20,70.0,51.1,32.0,59.0,46.1,31.0,100,85,65,30.43,30.11,1,0,4,0.00
2014-9-21,80.0,64.8,53.0,73.0,63.1,52.0,100,93,75,30.11,29.58,1,0,3,0.66
2014-9-22,70.0,62.9,47.0,68.0,53.7,40.0,100,76,46,30.10,29.54,4,1,15,0.01
2014-9-23,70.0,51.7,38.0,55.0,45.2,37.0,99,81,49,30.45,30.10,3,0,7,0.00
2014-9-24,69.0,53.7,43.0,57.0,49.8,43.0,100,88,63,30.65,30.46,1,0,3,0.00
2014-9-25,63.0,51.3,42.0,55.0,48.2,42.0,100,90,64,30.59,30.29,0,0,1,0.00
2014-9-26,78.0,55.4,44.0,62.0,52.0,44.0,100,90,55,30.28,30.16,1,0,2,0.00
2014-9-27,84.0,64.2,50.0,67.0,58.2,50.0,100,84,48,30.21,30.15,1,0,4,0.00
2014-9-28,86.0,63.5,51.0,68.0,58.8,51.0,100,87,47,30.18,29.99,1,0,4,0.00
2014-9-29,77.0,61.1,55.0,66.0,58.8,54.0,100,93,59,30.07,29.97,1,0,6,0.01
2014-9-30,58.0,56.1,54.0,57.0,55.3,54.0,100,97,93,30.08,30.03,0,0,2,0.03
2014-10-1,57.0,56.0,55.0,57.0,56.0,55.0,100,99,99,30.15,30.05,0,0,3,0.35
2014-10-2,58.0,53.4,44.0,56.0,52.6,44.0,100,97,90,30.22,30.15,0,0,4,0.30
2014-10-3,66.0,50.9,40.0,55.0,48.1,40.0,100,91,66,30.18,29.93,0,0,0,0.01
2014-10-4,61.0,56.7,52.0,61.0,56.5,51.0,100,99,98,29.94,29.55,0,0,0,0.29
2014-10-5,62.0,51.8,38.0,61.0,45.7,37.0,100,81,45,29.96,29.56,0,0,0,0.24
2014-10-6,68.0,47.3,32.0,50.0,41.7,32.0,100,84,44,30.17,29.96,0,0,1,0.00
2014-10-7,74.0,60.1,48.0,64.0,55.4,47.0,100,86,59,30.17,30.00,0,0,2,0.01
2014-10-8,71.0,63.1,53.0,62.0,55.8,42.0,99,79,50,29.99,29.71,0,0,1,0.03
2014-10-9,64.0,52.4,39.0,42.0,39.4,35.0,93,64,37,29.99,29.88,0,0,1,0.01
2014-10-10,62.0,48.0,36.0,43.0,39.6,35.0,98,75,46,30.15,29.99,3,0,244,0.00
2014-10-11,55.0,44.0,39.0,50.0,42.6,38.0,99,96,81,30.16,30.08,1,0,2,0.22
2014-10-12,61.0,44.1,32.0,47.0,38.9,32.0,100,84,48,30.32,30.15,1,0,32,0.01
2014-10-13,61.0,46.5,31.0,54.0,43.3,31.0,100,89,71,30.37,30.27,0,0,6,0.01
2014-10-14,77.0,65.2,56.0,68.0,60.5,53.0,96,85,69,30.27,30.16,0,0,57,0.00
2014-10-15,80.0,69.2,61.0,69.0,65.3,60.0,100,88,67,30.16,30.00,1,0,3,0.00
2014-10-16,72.0,67.3,62.0,70.0,66.8,62.0,100,98,93,30.00,29.69,0,0,3,0.70
2014-10-17,72.0,62.2,56.0,62.0,57.2,54.0,100,85,56,29.71,29.61,0,0,1,0.09
2014-10-18,69.0,59.7,54.0,62.0,55.9,49.0,100,88,71,29.68,29.51,0,0,1,0.00
2014-10-19,54.0,47.9,40.0,50.0,38.1,28.0,87,68,53,29.96,29.59,2,0,7,0.00
2014-10-20,58.0,43.9,33.0,41.0,33.7,27.0,83,68,47,30.06,29.97,1,0,4,0.00
2014-10-21,62.0,49.9,42.0,56.0,47.1,40.0,98,90,80,30.03,29.94,0,0,14,0.04
2014-10-22,50.0,48.9,47.0,50.0,48.1,46.0,99,98,97,30.09,29.87,1,0,15,0.33
2014-10-23,52.0,49.6,47.0,52.0,48.9,46.0,100,98,92,29.87,29.67,0,0,1,2.60
2014-10-24,52.0,48.6,44.0,49.0,46.6,42.0,99,93,84,29.77,29.70,0,0,0,0.17
2014-10-25,65.0,51.8,38.0,48.0,43.6,37.0,100,77,40,29.78,29.51,1,0,13,0.01
2014-10-26,58.0,50.2,44.0,47.0,42.8,38.0,94,76,54,29.70,29.44,0,0,74,0.00
2014-10-27,61.0,46.3,35.0,43.0,39.2,34.0,99,79,49,30.04,29.70,0,0,6,0.00
2014-10-28,66.0,47.7,34.0,53.0,43.9,34.0,100,88,58,30.09,29.96,0,0,0,0.00
2014-10-29,62.0,53.7,49.0,58.0,51.7,47.0,100,94,67,29.96,29.81,0,0,58,0.10
2014-10-30,56.0,44.5,34.0,47.0,40.9,34.0,100,88,61,30.01,29.88,0,0,5,0.01
2014-10-31,53.0,43.6,37.0,41.0,38.8,36.0,98,84,63,30.08,30.01,1,0,2,0.00
2014-11-1,43.0,39.6,36.0,42.0,37.5,34.0,97,92,84,30.00,29.85,2,0,7,0.39
2014-11-2,40.0,38.5,37.0,37.0,28.3,16.0,95,68,41,29.88,29.66,4,1,16,0.06
2014-11-3,52.0,39.6,28.0,28.0,19.2,13.0,81,47,22,30.07,29.83,5,2,16,0.00
2014-11-4,61.0,43.0,28.0,43.0,34.9,25.0,94,75,40,30.15,30.00,0,0,1,0.00
2014-11-5,64.0,50.5,37.0,47.0,38.8,31.0,90,67,39,30.13,29.95,0,0,1,0.00
2014-11-6,48.0,43.2,37.0,47.0,41.3,34.0,99,93,80,30.13,29.54,0,0,1,0.24
2014-11-7,47.0,42.3,38.0,47.0,37.1,26.0,99,82,62,29.79,29.48,5,2,16,0.13
2014-11-8,48.0,38.2,31.0,32.0,26.2,23.0,79,62,41,29.96,29.80,4,1,10,0.00
2014-11-9,53.0,41.3,29.0,39.0,34.4,28.0,96,78,54,30.03,29.88,1,0,5,0.00
2014-11-10,58.0,39.5,27.0,39.0,33.2,26.0,100,82,44,30.22,30.02,2,0,10,0.00
2014-11-11,62.0,45.4,31.0,53.0,42.8,31.0,100,91,68,30.21,30.00,2,0,4,0.00
2014-11-12,63.0,50.8,40.0,56.0,48.9,35.0,100,91,77,30.01,29.85,2,0,5,0.03
2014-11-13,49.0,39.1,28.0,35.0,31.4,27.0,96,76,49,30.09,29.98,2,0,6,0.10
2014-11-18,36.0,31.1,23.0,36.0,20.1,6.0,100,66,39,29.90,29.47,6,2,20,0.01
2014-11-19,36.0,27.2,22.0,14.0,10.7,7.0,60,50,36,30.12,29.91,4,1,14,0.00
2014-11-20,44.0,33.2,26.0,25.0,18.8,13.0,76,55,39,30.05,29.75,4,1,16,0.00
2014-11-21,34.0,27.8,23.0,17.0,12.9,7.0,67,53,43,30.40,29.92,5,2,16,0.00
2014-11-22,40.0,30.5,20.0,20.0,13.6,8.0,75,50,31,30.42,30.04,3,1,12,0.00
2014-11-23,59.0,47.0,39.0,44.0,35.6,21.0,78,65,49,30.15,30.05,2,0,8,0.01
2014-11-24,65.0,57.4,40.0,64.0,54.7,34.0,100,91,80,30.11,29.56,4,2,13,0.56
2014-11-25,62.0,54.5,37.0,57.0,43.6,28.0,91,69,39,30.12,29.69,4,1,10,0.01
2014-11-26,41.0,36.2,32.0,35.0,32.7,32.0,98,88,70,30.22,29.79,1,0,4,0.05
2014-11-30,48.0,43.1,35.0,42.0,39.0,33.0,94,86,76,30.17,30.03,1,0,4,0.44
2014-12-1,57.0,45.4,36.0,48.0,38.8,27.0,95,78,68,30.46,30.01,2,0,5,0.04
2014-12-2,36.0,31.2,28.0,31.0,24.0,17.0,97,75,62,30.74,30.44,3,0,5,0.00
2014-12-3,45.0,37.0,32.0,44.0,35.2,28.0,99,94,67,30.44,29.87,6,1,20,0.09
2014-12-4,41.0,33.0,21.0,28.0,23.6,17.0,86,69,45,30.58,30.07,6,2,14,0.01
2014-12-5,35.0,26.6,17.0,29.0,21.3,13.0,95,81,69,30.71,30.47,1,0,5,0.00
2014-12-6,36.0,33.3,30.0,36.0,32.9,29.0,99,97,95,30.47,30.17,3,0,8,0.76
2014-12-7,35.0,29.0,17.0,34.0,18.5,4.0,98,67,40,30.73,30.27,6,2,14,0.55
2014-12-8,23.0,18.3,12.0,19.0,10.0,1.0,85,70,55,30.80,30.57,2,1,8,0.00
2014-12-9,39.0,32.8,23.0,38.0,31.5,19.0,98,96,85,30.57,29.58,5,2,14,0.92
2014-12-10,38.0,34.4,36.0,37.0,34.0,35.0,99,94,98,29.61,29.45,3,1,11,0.58
2014-12-11,36.0,33.3,30.0,36.0,32.7,29.0,100,96,96,29.78,29.44,1,0,5,0.15
2014-12-12,36.0,31.4,26.0,32.0,29.4,26.0,98,92,83,29.89,29.78,0,0,1,0.01
2014-12-13,40.0,33.7,30.0,31.0,28.3,26.0,88,81,68,29.87,29.78,0,0,4,0.01
2014-12-14,42.0,34.2,30.0,32.0,28.7,26.0,91,79,66,29.93,29.80,1,0,2,0.00
2014-12-15,43.0,32.7,25.0,31.0,28.2,24.0,95,84,59,30.16,29.92,3,0,8,0.00
2014-12-16,39.0,34.0,25.0,36.0,32.0,24.0,99,93,84,30.17,29.96,0,0,0,0.01
2014-12-17,44.0,40.4,36.0,43.0,39.4,35.0,100,96,86,29.95,29.70,1,0,80,0.49
2014-12-18,41.0,37.6,35.0,35.0,32.3,28.0,95,81,72,29.87,29.71,0,0,6,0.02
2014-12-19,35.0,30.9,26.0,28.0,24.4,22.0,84,76,67,30.15,29.87,2,0,8,0.02
2014-12-20,34.0,25.9,20.0,27.0,21.1,18.0,93,79,70,30.34,30.17,2,0,6,0.00
2014-12-21,33.0,30.7,29.0,29.0,26.7,24.0,91,85,77,30.39,30.30,0,0,1,0.00
2014-12-22,39.0,34.2,31.0,35.0,31.1,27.0,98,89,78,30.41,30.30,1,0,5,0.05
2014-12-23,42.0,38.0,34.0,42.0,38.0,34.0,100,99,98,30.31,30.20,2,0,5,0.67
2014-12-24,41.0,39.0,38.0,41.0,39.0,38.0,100,100,99,30.20,29.55,0,0,1,0.51
2014-12-25,53.0,44.6,40.0,53.0,37.8,29.0,100,79,54,29.94,29.47,0,0,1,0.32
2014-12-26,49.0,39.2,28.0,35.0,31.0,27.0,95,73,56,30.16,29.94,0,0,2,0.02
2014-12-27,52.0,35.0,26.0,37.0,30.9,25.0,98,86,55,30.22,30.02,4,0,9,0.00
2014-12-28,50.0,43.8,38.0,45.0,36.8,28.0,95,77,65,30.02,29.75,4,1,13,0.07
2014-12-29,41.0,31.7,25.0,28.0,21.0,12.0,91,66,42,30.24,30.00,6,1,13,0.02
2014-12-30,28.0,20.0,10.0,13.0,7.3,0.0,82,59,33,30.37,30.24,4,1,15,0.00
2014-12-31,27.0,15.6,7.0,13.0,8.0,3.0,90,74,46,30.33,30.13,4,1,11,0.00
2015-1-1,33.0,22.3,9.0,14.0,9.9,7.0,91,61,38,30.13,29.91,5,1,13,0.00
2015-1-2,39.0,30.6,24.0,21.0,16.9,11.0,66,57,48,30.47,29.93,6,2,16,0.00